Time;durP1;ratioP1;P1;durP2;ratioP2;P2;SDS_P1;SDS_P2;PMS_P1;PMS_P2;Temp;Humidity;BMP_temperature;BMP_pressure;BME280_temperature;BME280_humidity;BME280_pressure;Samples;Min_cycle;Max_cycle;Signal;HPM_P1;HPM_P2
2022/03/18 00:00:51;;;;;;;79.80001;50.44999;;;;;;;4.74;76.87305;96542.61;;;;
2022/03/18 00:01:51;;;;;;;78.59999;50.60001;;;;;;;4.55;77.19629;96546.14;;;;
2022/03/18 00:02:52;;;;;;;78.59999;50.60001;;;;;;;4.55;77.19629;96546.14;;;;
2022/03/18 00:03:54;;;;;;;78.59999;50.60001;;;;;;;4.55;77.19629;96546.14;;;;
2022/03/18 00:04:54;;;;;;;78.59999;50.60001;;;;;;;4.55;77.19629;96546.14;;;;
2022/03/18 00:05:55;;;;;;;78.59999;50.60001;;;;;;;4.55;77.19629;96546.14;;;;
2022/03/18 00:06:55;;;;;;;78.59999;50.60001;;;;;;;4.55;77.19629;96546.14;;;;
2022/03/18 00:07:56;;;;;;;78.59999;50.60001;;;;;;;4.55;77.19629;96546.14;;;;
2022/03/18 00:08:56;;;;;;;78.59999;50.60001;;;;;;;4.55;77.19629;96546.14;;;;
2022/03/18 00:09:57;;;;;;;78.59999;50.60001;;;;;;;4.55;77.19629;96546.14;;;;
2022/03/18 00:10:58;;;;;;;78.59999;50.60001;;;;;;;4.55;77.19629;96546.14;;;;
2022/03/18 00:11:58;;;;;;;84.45;51.45;;;;;;;4.41;77.58398;96555.66;;;;
2022/03/18 00:12:59;;;;;;;84.45;51.45;;;;;;;4.41;77.58398;96555.66;;;;
2022/03/18 00:14:02;;;;;;;84.45;51.45;;;;;;;4.41;77.58398;96555.66;;;;
2022/03/18 00:15:03;;;;;;;84.45;51.45;;;;;;;4.41;77.58398;96555.66;;;;
2022/03/18 00:16:06;;;;;;;84.45;51.45;;;;;;;4.41;77.58398;96555.66;;;;
2022/03/18 00:17:08;;;;;;;84.45;51.45;;;;;;;4.41;77.58398;96555.66;;;;
2022/03/18 00:18:10;;;;;;;84.45;51.45;;;;;;;4.41;77.58398;96555.66;;;;
2022/03/18 00:19:11;;;;;;;84.45;51.45;;;;;;;4.41;77.58398;96555.66;;;;
2022/03/18 00:20:11;;;;;;;84.45;51.45;;;;;;;4.41;77.58398;96555.66;;;;
2022/03/18 00:21:13;;;;;;;84.45;51.45;;;;;;;4.41;77.58398;96555.66;;;;
2022/03/18 00:22:13;;;;;;;84.45;51.45;;;;;;;4.41;77.58398;96555.66;;;;
2022/03/18 00:23:14;;;;;;;77.9;49.19999;;;;;;;4.34;77.84375;96556.05;;;;
2022/03/18 00:24:14;;;;;;;77.9;49.19999;;;;;;;4.34;77.84375;96556.05;;;;
2022/03/18 00:25:15;;;;;;;77.9;49.19999;;;;;;;4.34;77.84375;96556.05;;;;
2022/03/18 00:26:17;;;;;;;77.9;49.19999;;;;;;;4.34;77.84375;96556.05;;;;
2022/03/18 00:27:18;;;;;;;77.9;49.19999;;;;;;;4.34;77.84375;96556.05;;;;
2022/03/18 00:28:18;;;;;;;77.9;49.19999;;;;;;;4.34;77.84375;96556.05;;;;
2022/03/18 00:29:19;;;;;;;77.9;49.19999;;;;;;;4.34;77.84375;96556.05;;;;
2022/03/18 00:30:19;;;;;;;77.9;49.19999;;;;;;;4.34;77.84375;96556.05;;;;
2022/03/18 00:31:20;;;;;;;77.9;49.19999;;;;;;;4.34;77.84375;96556.05;;;;
2022/03/18 00:32:20;;;;;;;77.9;49.19999;;;;;;;4.34;77.84375;96556.05;;;;
2022/03/18 00:33:22;;;;;;;83.45;50.45001;;;;;;;4.32;77.9668;96562.09;;;;
2022/03/18 00:34:22;;;;;;;83.45;50.45001;;;;;;;4.32;77.9668;96562.09;;;;
2022/03/18 00:35:24;;;;;;;83.45;50.45001;;;;;;;4.32;77.9668;96562.09;;;;
2022/03/18 00:36:24;;;;;;;83.45;50.45001;;;;;;;4.32;77.9668;96562.09;;;;
2022/03/18 00:37:25;;;;;;;83.45;50.45001;;;;;;;4.32;77.9668;96562.09;;;;
2022/03/18 00:38:25;;;;;;;83.45;50.45001;;;;;;;4.32;77.9668;96562.09;;;;
2022/03/18 00:39:26;;;;;;;83.45;50.45001;;;;;;;4.32;77.9668;96562.09;;;;
2022/03/18 00:40:26;;;;;;;83.45;50.45001;;;;;;;4.32;77.9668;96562.09;;;;
2022/03/18 00:41:27;;;;;;;83.45;50.45001;;;;;;;4.32;77.9668;96562.09;;;;
2022/03/18 00:42:28;;;;;;;83.45;50.45001;;;;;;;4.32;77.9668;96562.09;;;;
2022/03/18 00:43:29;;;;;;;83.45;50.45001;;;;;;;4.32;77.9668;96562.09;;;;
2022/03/18 00:44:30;;;;;;;83.45001;49.1;;;;;;;4.37;77.9541;96565.95;;;;
2022/03/18 00:45:30;;;;;;;83.45001;49.1;;;;;;;4.37;77.9541;96565.95;;;;
2022/03/18 00:46:30;;;;;;;83.45001;49.1;;;;;;;4.37;77.9541;96565.95;;;;
2022/03/18 00:52:43;;;;;;;83.45001;49.1;;;;;;;4.37;77.9541;96565.95;;;;
2022/03/18 00:53:43;;;;;;;83.45001;49.1;;;;;;;4.37;77.9541;96565.95;;;;
2022/03/18 00:54:44;;;;;;;83.45001;49.1;;;;;;;4.37;77.9541;96565.95;;;;
2022/03/18 00:55:44;;;;;;;83.45001;49.1;;;;;;;4.37;77.9541;96565.95;;;;
2022/03/18 00:56:45;;;;;;;83.45001;49.1;;;;;;;4.37;77.9541;96565.95;;;;
2022/03/18 00:57:46;;;;;;;83.45001;49.1;;;;;;;4.37;77.9541;96565.95;;;;
2022/03/18 00:58:46;;;;;;;83.45001;49.1;;;;;;;4.37;77.9541;96565.95;;;;
2022/03/18 00:59:47;;;;;;;83.45001;49.1;;;;;;;4.37;77.9541;96565.95;;;;
2022/03/18 01:00:47;;;;;;;83.45001;49.1;;;;;;;4.37;77.9541;96565.95;;;;
2022/03/18 01:01:52;;;;;;;83.45001;49.1;;;;;;;4.37;77.9541;96565.95;;;;
2022/03/18 01:02:52;;;;;;;83.45001;49.1;;;;;;;4.37;77.9541;96565.95;;;;
2022/03/18 01:03:53;;;;;;;83.45001;49.1;;;;;;;4.37;77.9541;96565.95;;;;
2022/03/18 01:04:53;;;;;;;83.45001;49.1;;;;;;;4.37;77.9541;96565.95;;;;
2022/03/18 01:05:54;;;;;;;80.89999;47.7;;;;;;;4.2;78.27344;96568.67;;;;
2022/03/18 01:06:54;;;;;;;80.89999;47.7;;;;;;;4.2;78.27344;96568.67;;;;
2022/03/18 01:07:55;;;;;;;80.89999;47.7;;;;;;;4.2;78.27344;96568.67;;;;
2022/03/18 01:08:56;;;;;;;80.89999;47.7;;;;;;;4.2;78.27344;96568.67;;;;
2022/03/18 01:09:56;;;;;;;80.89999;47.7;;;;;;;4.2;78.27344;96568.67;;;;
2022/03/18 01:10:57;;;;;;;80.89999;47.7;;;;;;;4.2;78.27344;96568.67;;;;
2022/03/18 01:11:58;;;;;;;80.89999;47.7;;;;;;;4.2;78.27344;96568.67;;;;
2022/03/18 01:12:59;;;;;;;80.89999;47.7;;;;;;;4.2;78.27344;96568.67;;;;
2022/03/18 01:14:00;;;;;;;80.89999;47.7;;;;;;;4.2;78.27344;96568.67;;;;
2022/03/18 01:15:00;;;;;;;80.89999;47.7;;;;;;;4.2;78.27344;96568.67;;;;
2022/03/18 01:16:01;;;;;;;77.2;46.35;;;;;;;4.17;78.35254;96570.75;;;;
2022/03/18 01:17:01;;;;;;;77.2;46.35;;;;;;;4.17;78.35254;96570.75;;;;
2022/03/18 01:18:02;;;;;;;77.2;46.35;;;;;;;4.17;78.35254;96570.75;;;;
2022/03/18 01:19:03;;;;;;;77.2;46.35;;;;;;;4.17;78.35254;96570.75;;;;
2022/03/18 01:20:03;;;;;;;77.2;46.35;;;;;;;4.17;78.35254;96570.75;;;;
2022/03/18 01:21:05;;;;;;;77.2;46.35;;;;;;;4.17;78.35254;96570.75;;;;
2022/03/18 01:22:06;;;;;;;77.2;46.35;;;;;;;4.17;78.35254;96570.75;;;;
2022/03/18 01:23:06;;;;;;;77.2;46.35;;;;;;;4.17;78.35254;96570.75;;;;
2022/03/18 01:24:07;;;;;;;77.2;46.35;;;;;;;4.17;78.35254;96570.75;;;;
2022/03/18 01:25:08;;;;;;;77.2;46.35;;;;;;;4.17;78.35254;96570.75;;;;
2022/03/18 01:26:09;;;;;;;77.2;46.35;;;;;;;4.17;78.35254;96570.75;;;;
2022/03/18 01:27:09;;;;;;;80.10001;47;;;;;;;4.22;78.29785;96572.44;;;;
2022/03/18 01:28:10;;;;;;;80.10001;47;;;;;;;4.22;78.29785;96572.44;;;;
2022/03/18 01:29:10;;;;;;;80.10001;47;;;;;;;4.22;78.29785;96572.44;;;;
2022/03/18 01:30:11;;;;;;;80.10001;47;;;;;;;4.22;78.29785;96572.44;;;;
2022/03/18 01:31:12;;;;;;;80.10001;47;;;;;;;4.22;78.29785;96572.44;;;;
2022/03/18 01:32:13;;;;;;;80.10001;47;;;;;;;4.22;78.29785;96572.44;;;;
2022/03/18 01:33:13;;;;;;;80.10001;47;;;;;;;4.22;78.29785;96572.44;;;;
2022/03/18 01:34:14;;;;;;;80.10001;47;;;;;;;4.22;78.29785;96572.44;;;;
2022/03/18 01:35:14;;;;;;;80.10001;47;;;;;;;4.22;78.29785;96572.44;;;;
2022/03/18 01:36:15;;;;;;;80.10001;47;;;;;;;4.22;78.29785;96572.44;;;;
2022/03/18 01:37:15;;;;;;;74.74999;44.79999;;;;;;;4.26;78.11523;96571.09;;;;
2022/03/18 01:38:16;;;;;;;74.74999;44.79999;;;;;;;4.26;78.11523;96571.09;;;;
2022/03/18 01:39:16;;;;;;;74.74999;44.79999;;;;;;;4.26;78.11523;96571.09;;;;
2022/03/18 01:40:17;;;;;;;74.74999;44.79999;;;;;;;4.26;78.11523;96571.09;;;;
2022/03/18 01:41:18;;;;;;;74.74999;44.79999;;;;;;;4.26;78.11523;96571.09;;;;
2022/03/18 01:42:19;;;;;;;74.74999;44.79999;;;;;;;4.26;78.11523;96571.09;;;;
2022/03/18 01:43:20;;;;;;;74.74999;44.79999;;;;;;;4.26;78.11523;96571.09;;;;
2022/03/18 01:44:21;;;;;;;74.74999;44.79999;;;;;;;4.26;78.11523;96571.09;;;;
2022/03/18 01:45:21;;;;;;;74.74999;44.79999;;;;;;;4.26;78.11523;96571.09;;;;
2022/03/18 01:46:23;;;;;;;74.74999;44.79999;;;;;;;4.26;78.11523;96571.09;;;;
2022/03/18 01:47:24;;;;;;;74.74999;44.79999;;;;;;;4.26;78.11523;96571.09;;;;
2022/03/18 01:48:24;;;;;;;80.45;46.95001;;;;;;;4.25;78.03906;96573.52;;;;
2022/03/18 01:49:25;;;;;;;80.45;46.95001;;;;;;;4.25;78.03906;96573.52;;;;
2022/03/18 01:50:26;;;;;;;80.45;46.95001;;;;;;;4.25;78.03906;96573.52;;;;
2022/03/18 01:51:27;;;;;;;80.45;46.95001;;;;;;;4.25;78.03906;96573.52;;;;
2022/03/18 01:52:27;;;;;;;80.45;46.95001;;;;;;;4.25;78.03906;96573.52;;;;
2022/03/18 01:53:28;;;;;;;80.45;46.95001;;;;;;;4.25;78.03906;96573.52;;;;
2022/03/18 01:54:44;;;;;;;80.45;46.95001;;;;;;;4.25;78.03906;96573.52;;;;
2022/03/18 01:55:44;;;;;;;80.45;46.95001;;;;;;;4.25;78.03906;96573.52;;;;
2022/03/18 01:56:45;;;;;;;80.45;46.95001;;;;;;;4.25;78.03906;96573.52;;;;
2022/03/18 01:57:47;;;;;;;80.45;46.95001;;;;;;;4.25;78.03906;96573.52;;;;
2022/03/18 01:58:48;;;;;;;80.45;46.95001;;;;;;;4.25;78.03906;96573.52;;;;
2022/03/18 01:59:49;;;;;;;80.45;46.95001;;;;;;;4.25;78.03906;96573.52;;;;
2022/03/18 02:00:50;;;;;;;80.45;46.95001;;;;;;;4.25;78.03906;96573.52;;;;
2022/03/18 02:01:51;;;;;;;80.45;46.95001;;;;;;;4.25;78.03906;96573.52;;;;
2022/03/18 02:02:52;;;;;;;80.45;46.95001;;;;;;;4.25;78.03906;96573.52;;;;
2022/03/18 02:03:52;;;;;;;80.45;46.95001;;;;;;;4.25;78.03906;96573.52;;;;
2022/03/18 02:04:52;;;;;;;80.45;46.95001;;;;;;;4.25;78.03906;96573.52;;;;
2022/03/18 02:05:55;;;;;;;80.45;46.95001;;;;;;;4.25;78.03906;96573.52;;;;
2022/03/18 02:06:56;;;;;;;80.45;46.95001;;;;;;;4.25;78.03906;96573.52;;;;
2022/03/18 02:07:57;;;;;;;80.45;46.95001;;;;;;;4.25;78.03906;96573.52;;;;
2022/03/18 02:08:57;;;;;;;80.45;46.95001;;;;;;;4.25;78.03906;96573.52;;;;
2022/03/18 02:09:58;;;;;;;80.45;46.95001;;;;;;;4.25;78.03906;96573.52;;;;
2022/03/18 02:10:59;;;;;;;80.45;46.95001;;;;;;;4.25;78.03906;96573.52;;;;
2022/03/18 02:12:00;;;;;;;80.45;46.95001;;;;;;;4.25;78.03906;96573.52;;;;
2022/03/18 02:13:01;;;;;;;80.45;46.95001;;;;;;;4.25;78.03906;96573.52;;;;
2022/03/18 02:14:02;;;;;;;80.45;46.95001;;;;;;;4.25;78.03906;96573.52;;;;
2022/03/18 02:15:03;;;;;;;80.45;46.95001;;;;;;;4.25;78.03906;96573.52;;;;
2022/03/18 02:16:04;;;;;;;80.45;46.95001;;;;;;;4.25;78.03906;96573.52;;;;
2022/03/18 02:17:05;;;;;;;80.45;46.95001;;;;;;;4.25;78.03906;96573.52;;;;
2022/03/18 02:18:07;;;;;;;80.45;46.95001;;;;;;;4.25;78.03906;96573.52;;;;
2022/03/18 02:19:07;;;;;;;80.45;46.95001;;;;;;;4.25;78.03906;96573.52;;;;
2022/03/18 02:20:08;;;;;;;72.85001;44;;;;;;;4.19;78.47168;96588.79;;;;
2022/03/18 02:21:09;;;;;;;72.85001;44;;;;;;;4.19;78.47168;96588.79;;;;
2022/03/18 02:22:14;;;;;;;72.85001;44;;;;;;;4.19;78.47168;96588.79;;;;
2022/03/18 02:23:17;;;;;;;72.85001;44;;;;;;;4.19;78.47168;96588.79;;;;
2022/03/18 02:24:18;;;;;;;72.85001;44;;;;;;;4.19;78.47168;96588.79;;;;
2022/03/18 02:25:19;;;;;;;72.85001;44;;;;;;;4.19;78.47168;96588.79;;;;
2022/03/18 02:26:19;;;;;;;72.85001;44;;;;;;;4.19;78.47168;96588.79;;;;
2022/03/18 02:27:20;;;;;;;72.85001;44;;;;;;;4.19;78.47168;96588.79;;;;
2022/03/18 02:28:21;;;;;;;72.85001;44;;;;;;;4.19;78.47168;96588.79;;;;
2022/03/18 02:29:21;;;;;;;72.85001;44;;;;;;;4.19;78.47168;96588.79;;;;
2022/03/18 02:30:23;;;;;;;71.39999;42.45;;;;;;;4.19;78.36426;96587.98;;;;
2022/03/18 02:31:24;;;;;;;71.39999;42.45;;;;;;;4.19;78.36426;96587.98;;;;
2022/03/18 02:32:28;;;;;;;71.39999;42.45;;;;;;;4.19;78.36426;96587.98;;;;
2022/03/18 02:33:30;;;;;;;71.39999;42.45;;;;;;;4.19;78.36426;96587.98;;;;
2022/03/18 02:34:30;;;;;;;71.39999;42.45;;;;;;;4.19;78.36426;96587.98;;;;
2022/03/18 02:35:32;;;;;;;71.39999;42.45;;;;;;;4.19;78.36426;96587.98;;;;
2022/03/18 02:36:32;;;;;;;71.39999;42.45;;;;;;;4.19;78.36426;96587.98;;;;
2022/03/18 02:37:33;;;;;;;71.39999;42.45;;;;;;;4.19;78.36426;96587.98;;;;
2022/03/18 02:38:33;;;;;;;71.39999;42.45;;;;;;;4.19;78.36426;96587.98;;;;
2022/03/18 02:39:34;;;;;;;71.39999;42.45;;;;;;;4.19;78.36426;96587.98;;;;
2022/03/18 02:40:35;;;;;;;71.39999;42.45;;;;;;;4.19;78.36426;96587.98;;;;
2022/03/18 02:41:35;;;;;;;70.5;43.1;;;;;;;4.16;78.54883;96582.51;;;;
2022/03/18 02:42:36;;;;;;;70.5;43.1;;;;;;;4.16;78.54883;96582.51;;;;
2022/03/18 02:43:36;;;;;;;70.5;43.1;;;;;;;4.16;78.54883;96582.51;;;;
2022/03/18 02:44:37;;;;;;;70.5;43.1;;;;;;;4.16;78.54883;96582.51;;;;
2022/03/18 02:45:37;;;;;;;70.5;43.1;;;;;;;4.16;78.54883;96582.51;;;;
2022/03/18 02:46:38;;;;;;;70.5;43.1;;;;;;;4.16;78.54883;96582.51;;;;
2022/03/18 02:47:39;;;;;;;70.5;43.1;;;;;;;4.16;78.54883;96582.51;;;;
2022/03/18 02:48:39;;;;;;;70.5;43.1;;;;;;;4.16;78.54883;96582.51;;;;
2022/03/18 02:49:40;;;;;;;70.5;43.1;;;;;;;4.16;78.54883;96582.51;;;;
2022/03/18 02:50:40;;;;;;;70.5;43.1;;;;;;;4.16;78.54883;96582.51;;;;
2022/03/18 02:51:41;;;;;;;70.5;43.1;;;;;;;4.16;78.54883;96582.51;;;;
2022/03/18 02:52:41;;;;;;;70.14999;42.00001;;;;;;;4.11;78.60156;96586.19;;;;
2022/03/18 02:53:43;;;;;;;70.14999;42.00001;;;;;;;4.11;78.60156;96586.19;;;;
2022/03/18 02:54:43;;;;;;;70.14999;42.00001;;;;;;;4.11;78.60156;96586.19;;;;
2022/03/18 02:55:44;;;;;;;70.14999;42.00001;;;;;;;4.11;78.60156;96586.19;;;;
2022/03/18 02:56:44;;;;;;;70.14999;42.00001;;;;;;;4.11;78.60156;96586.19;;;;
2022/03/18 02:57:45;;;;;;;70.14999;42.00001;;;;;;;4.11;78.60156;96586.19;;;;
2022/03/18 02:58:45;;;;;;;70.14999;42.00001;;;;;;;4.11;78.60156;96586.19;;;;
2022/03/18 02:59:46;;;;;;;70.14999;42.00001;;;;;;;4.11;78.60156;96586.19;;;;
2022/03/18 03:00:46;;;;;;;70.14999;42.00001;;;;;;;4.11;78.60156;96586.19;;;;
2022/03/18 03:01:47;;;;;;;70.14999;42.00001;;;;;;;4.11;78.60156;96586.19;;;;
2022/03/18 03:02:47;;;;;;;69.90001;42.8;;;;;;;4;78.66699;96586.92;;;;
2022/03/18 03:03:48;;;;;;;69.90001;42.8;;;;;;;4;78.66699;96586.92;;;;
2022/03/18 03:10:01;;;;;;;69.90001;42.8;;;;;;;4;78.66699;96586.92;;;;
2022/03/18 03:11:02;;;;;;;69.90001;42.8;;;;;;;4;78.66699;96586.92;;;;
2022/03/18 03:12:03;;;;;;;69.90001;42.8;;;;;;;4;78.66699;96586.92;;;;
2022/03/18 03:13:06;;;;;;;67.05;40.55;;;;;;;3.79;78.80566;96592.8;;;;
2022/03/18 03:14:08;;;;;;;67.05;40.55;;;;;;;3.79;78.80566;96592.8;;;;
2022/03/18 03:15:08;;;;;;;67.05;40.55;;;;;;;3.79;78.80566;96592.8;;;;
2022/03/18 03:16:09;;;;;;;67.05;40.55;;;;;;;3.79;78.80566;96592.8;;;;
2022/03/18 03:17:09;;;;;;;67.05;40.55;;;;;;;3.79;78.80566;96592.8;;;;
2022/03/18 03:18:10;;;;;;;67.05;40.55;;;;;;;3.79;78.80566;96592.8;;;;
2022/03/18 03:19:13;;;;;;;67.05;40.55;;;;;;;3.79;78.80566;96592.8;;;;
2022/03/18 03:20:15;;;;;;;67.05;40.55;;;;;;;3.79;78.80566;96592.8;;;;
2022/03/18 03:21:15;;;;;;;67.05;40.55;;;;;;;3.79;78.80566;96592.8;;;;
2022/03/18 03:22:16;;;;;;;67.05;40.55;;;;;;;3.79;78.80566;96592.8;;;;
2022/03/18 03:23:16;;;;;;;67.05;40.55;;;;;;;3.79;78.80566;96592.8;;;;
2022/03/18 03:24:17;;;;;;;69.89999;41.2;;;;;;;3.65;79.07617;96601.34;;;;
2022/03/18 03:25:18;;;;;;;69.89999;41.2;;;;;;;3.65;79.07617;96601.34;;;;
2022/03/18 03:26:18;;;;;;;69.89999;41.2;;;;;;;3.65;79.07617;96601.34;;;;
2022/03/18 03:27:19;;;;;;;69.89999;41.2;;;;;;;3.65;79.07617;96601.34;;;;
2022/03/18 03:28:19;;;;;;;69.89999;41.2;;;;;;;3.65;79.07617;96601.34;;;;
2022/03/18 03:29:20;;;;;;;69.89999;41.2;;;;;;;3.65;79.07617;96601.34;;;;
2022/03/18 03:30:21;;;;;;;69.89999;41.2;;;;;;;3.65;79.07617;96601.34;;;;
2022/03/18 03:31:22;;;;;;;69.89999;41.2;;;;;;;3.65;79.07617;96601.34;;;;
2022/03/18 03:32:23;;;;;;;69.89999;41.2;;;;;;;3.65;79.07617;96601.34;;;;
2022/03/18 03:33:24;;;;;;;69.89999;41.2;;;;;;;3.65;79.07617;96601.34;;;;
2022/03/18 03:34:25;;;;;;;69.89999;41.2;;;;;;;3.65;79.07617;96601.34;;;;
2022/03/18 03:35:25;;;;;;;69.89999;41.2;;;;;;;3.65;79.07617;96601.34;;;;
2022/03/18 03:36:26;;;;;;;69.89999;41.2;;;;;;;3.65;79.07617;96601.34;;;;
2022/03/18 03:37:27;;;;;;;69.89999;41.2;;;;;;;3.65;79.07617;96601.34;;;;
2022/03/18 03:38:28;;;;;;;69.89999;41.2;;;;;;;3.65;79.07617;96601.34;;;;
2022/03/18 03:39:28;;;;;;;69.89999;41.2;;;;;;;3.65;79.07617;96601.34;;;;
2022/03/18 03:40:29;;;;;;;69.89999;41.2;;;;;;;3.65;79.07617;96601.34;;;;
2022/03/18 03:41:30;;;;;;;69.89999;41.2;;;;;;;3.65;79.07617;96601.34;;;;
2022/03/18 03:42:30;;;;;;;69.89999;41.2;;;;;;;3.65;79.07617;96601.34;;;;
2022/03/18 03:43:31;;;;;;;69.89999;41.2;;;;;;;3.65;79.07617;96601.34;;;;
2022/03/18 03:44:31;;;;;;;69.89999;41.2;;;;;;;3.65;79.07617;96601.34;;;;
2022/03/18 03:45:32;;;;;;;66.49998;38.65;;;;;;;3.25;79.2959;96621.67;;;;
2022/03/18 03:46:33;;;;;;;66.49998;38.65;;;;;;;3.25;79.2959;96621.67;;;;
2022/03/18 03:47:34;;;;;;;66.49998;38.65;;;;;;;3.25;79.2959;96621.67;;;;
2022/03/18 03:48:34;;;;;;;66.49998;38.65;;;;;;;3.25;79.2959;96621.67;;;;
2022/03/18 03:49:35;;;;;;;66.49998;38.65;;;;;;;3.25;79.2959;96621.67;;;;
2022/03/18 03:50:35;;;;;;;66.49998;38.65;;;;;;;3.25;79.2959;96621.67;;;;
2022/03/18 03:51:37;;;;;;;66.49998;38.65;;;;;;;3.25;79.2959;96621.67;;;;
2022/03/18 03:52:37;;;;;;;66.49998;38.65;;;;;;;3.25;79.2959;96621.67;;;;
2022/03/18 03:53:38;;;;;;;66.49998;38.65;;;;;;;3.25;79.2959;96621.67;;;;
2022/03/18 03:54:38;;;;;;;66.49998;38.65;;;;;;;3.25;79.2959;96621.67;;;;
2022/03/18 03:55:40;;;;;;;66.49998;38.65;;;;;;;3.25;79.2959;96621.67;;;;
2022/03/18 03:56:41;;;;;;;75.45;41.1;;;;;;;3.11;79.52344;96626.59;;;;
2022/03/18 03:57:41;;;;;;;75.45;41.1;;;;;;;3.11;79.52344;96626.59;;;;
2022/03/18 03:58:42;;;;;;;75.45;41.1;;;;;;;3.11;79.52344;96626.59;;;;
2022/03/18 03:59:42;;;;;;;75.45;41.1;;;;;;;3.11;79.52344;96626.59;;;;
2022/03/18 04:00:43;;;;;;;75.45;41.1;;;;;;;3.11;79.52344;96626.59;;;;
2022/03/18 04:01:43;;;;;;;75.45;41.1;;;;;;;3.11;79.52344;96626.59;;;;
2022/03/18 04:02:44;;;;;;;75.45;41.1;;;;;;;3.11;79.52344;96626.59;;;;
2022/03/18 04:03:47;;;;;;;75.45;41.1;;;;;;;3.11;79.52344;96626.59;;;;
2022/03/18 04:04:47;;;;;;;75.45;41.1;;;;;;;3.11;79.52344;96626.59;;;;
2022/03/18 04:05:49;;;;;;;75.45;41.1;;;;;;;3.11;79.52344;96626.59;;;;
2022/03/18 04:06:50;;;;;;;73.39999;40.60001;;;;;;;3.23;79.42871;96634.76;;;;
2022/03/18 04:07:50;;;;;;;73.39999;40.60001;;;;;;;3.23;79.42871;96634.76;;;;
2022/03/18 04:08:50;;;;;;;73.39999;40.60001;;;;;;;3.23;79.42871;96634.76;;;;
2022/03/18 04:09:53;;;;;;;73.39999;40.60001;;;;;;;3.23;79.42871;96634.76;;;;
2022/03/18 04:10:54;;;;;;;73.39999;40.60001;;;;;;;3.23;79.42871;96634.76;;;;
2022/03/18 04:11:54;;;;;;;73.39999;40.60001;;;;;;;3.23;79.42871;96634.76;;;;
2022/03/18 04:12:55;;;;;;;73.39999;40.60001;;;;;;;3.23;79.42871;96634.76;;;;
2022/03/18 04:13:55;;;;;;;73.39999;40.60001;;;;;;;3.23;79.42871;96634.76;;;;
2022/03/18 04:14:56;;;;;;;73.39999;40.60001;;;;;;;3.23;79.42871;96634.76;;;;
2022/03/18 04:15:57;;;;;;;73.39999;40.60001;;;;;;;3.23;79.42871;96634.76;;;;
2022/03/18 04:16:57;;;;;;;73.39999;40.60001;;;;;;;3.23;79.42871;96634.76;;;;
2022/03/18 04:17:58;;;;;;;75.5;42.55;;;;;;;3.32;79.08887;96648.07;;;;
2022/03/18 04:18:58;;;;;;;75.5;42.55;;;;;;;3.32;79.08887;96648.07;;;;
2022/03/18 04:19:59;;;;;;;75.5;42.55;;;;;;;3.32;79.08887;96648.07;;;;
2022/03/18 04:20:59;;;;;;;75.5;42.55;;;;;;;3.32;79.08887;96648.07;;;;
2022/03/18 04:21:59;;;;;;;75.5;42.55;;;;;;;3.32;79.08887;96648.07;;;;
2022/03/18 04:23:00;;;;;;;75.5;42.55;;;;;;;3.32;79.08887;96648.07;;;;
2022/03/18 04:24:01;;;;;;;75.5;42.55;;;;;;;3.32;79.08887;96648.07;;;;
2022/03/18 04:25:01;;;;;;;75.5;42.55;;;;;;;3.32;79.08887;96648.07;;;;
2022/03/18 04:26:03;;;;;;;75.5;42.55;;;;;;;3.32;79.08887;96648.07;;;;
2022/03/18 04:27:03;;;;;;;75.5;42.55;;;;;;;3.32;79.08887;96648.07;;;;
2022/03/18 04:28:04;;;;;;;71;40.2;;;;;;;3.3;79.06445;96662.91;;;;
2022/03/18 04:29:05;;;;;;;71;40.2;;;;;;;3.3;79.06445;96662.91;;;;
2022/03/18 04:30:06;;;;;;;71;40.2;;;;;;;3.3;79.06445;96662.91;;;;
2022/03/18 04:31:10;;;;;;;71;40.2;;;;;;;3.3;79.06445;96662.91;;;;
2022/03/18 04:32:11;;;;;;;71;40.2;;;;;;;3.3;79.06445;96662.91;;;;
2022/03/18 04:33:12;;;;;;;71;40.2;;;;;;;3.3;79.06445;96662.91;;;;
2022/03/18 04:34:13;;;;;;;71;40.2;;;;;;;3.3;79.06445;96662.91;;;;
2022/03/18 04:35:13;;;;;;;71;40.2;;;;;;;3.3;79.06445;96662.91;;;;
2022/03/18 04:36:14;;;;;;;71;40.2;;;;;;;3.3;79.06445;96662.91;;;;
2022/03/18 04:37:14;;;;;;;71;40.2;;;;;;;3.3;79.06445;96662.91;;;;
2022/03/18 04:38:15;;;;;;;71;40.2;;;;;;;3.3;79.06445;96662.91;;;;
2022/03/18 04:39:15;;;;;;;74.05;41.45;;;;;;;3.24;79.12793;96676.87;;;;
2022/03/18 04:40:16;;;;;;;74.05;41.45;;;;;;;3.24;79.12793;96676.87;;;;
2022/03/18 04:41:17;;;;;;;74.05;41.45;;;;;;;3.24;79.12793;96676.87;;;;
2022/03/18 04:42:17;;;;;;;74.05;41.45;;;;;;;3.24;79.12793;96676.87;;;;
2022/03/18 04:43:19;;;;;;;74.05;41.45;;;;;;;3.24;79.12793;96676.87;;;;
2022/03/18 04:44:19;;;;;;;74.05;41.45;;;;;;;3.24;79.12793;96676.87;;;;
2022/03/18 04:45:20;;;;;;;74.05;41.45;;;;;;;3.24;79.12793;96676.87;;;;
2022/03/18 04:46:20;;;;;;;74.05;41.45;;;;;;;3.24;79.12793;96676.87;;;;
2022/03/18 04:47:21;;;;;;;74.05;41.45;;;;;;;3.24;79.12793;96676.87;;;;
2022/03/18 04:48:21;;;;;;;74.05;41.45;;;;;;;3.24;79.12793;96676.87;;;;
2022/03/18 04:49:22;;;;;;;74.05;41.45;;;;;;;3.24;79.12793;96676.87;;;;
2022/03/18 04:50:22;;;;;;;74.05;41.45;;;;;;;3.24;79.12793;96676.87;;;;
2022/03/18 04:51:23;;;;;;;74.05;41.45;;;;;;;3.24;79.12793;96676.87;;;;
2022/03/18 04:52:24;;;;;;;74.05;41.45;;;;;;;3.24;79.12793;96676.87;;;;
2022/03/18 04:53:24;;;;;;;74.05;41.45;;;;;;;3.24;79.12793;96676.87;;;;
2022/03/18 04:54:25;;;;;;;74.05;41.45;;;;;;;3.24;79.12793;96676.87;;;;
2022/03/18 04:55:25;;;;;;;74.05;41.45;;;;;;;3.24;79.12793;96676.87;;;;
2022/03/18 04:57:31;;;;;;;74.05;41.45;;;;;;;3.24;79.12793;96676.87;;;;
2022/03/18 04:58:32;;;;;;;74.05;41.45;;;;;;;3.24;79.12793;96676.87;;;;
2022/03/18 04:59:32;;;;;;;74.05;41.45;;;;;;;3.24;79.12793;96676.87;;;;
2022/03/18 05:00:33;;;;;;;72.09999;40.15;;;;;;;3.15;79.18359;96696.91;;;;
2022/03/18 05:01:33;;;;;;;72.09999;40.15;;;;;;;3.15;79.18359;96696.91;;;;
2022/03/18 05:02:36;;;;;;;72.09999;40.15;;;;;;;3.15;79.18359;96696.91;;;;
2022/03/18 05:03:36;;;;;;;72.09999;40.15;;;;;;;3.15;79.18359;96696.91;;;;
2022/03/18 05:04:36;;;;;;;72.09999;40.15;;;;;;;3.15;79.18359;96696.91;;;;
2022/03/18 05:05:37;;;;;;;72.09999;40.15;;;;;;;3.15;79.18359;96696.91;;;;
2022/03/18 05:06:39;;;;;;;72.09999;40.15;;;;;;;3.15;79.18359;96696.91;;;;
2022/03/18 05:07:40;;;;;;;72.09999;40.15;;;;;;;3.15;79.18359;96696.91;;;;
2022/03/18 05:08:40;;;;;;;72.09999;40.15;;;;;;;3.15;79.18359;96696.91;;;;
2022/03/18 05:09:41;;;;;;;72.09999;40.15;;;;;;;3.15;79.18359;96696.91;;;;
2022/03/18 05:10:42;;;;;;;72.04999;39.15;;;;;;;2.98;79.31055;96707.56;;;;
2022/03/18 05:11:42;;;;;;;72.04999;39.15;;;;;;;2.98;79.31055;96707.56;;;;
2022/03/18 05:12:43;;;;;;;72.04999;39.15;;;;;;;2.98;79.31055;96707.56;;;;
2022/03/18 05:13:44;;;;;;;72.04999;39.15;;;;;;;2.98;79.31055;96707.56;;;;
2022/03/18 05:14:45;;;;;;;72.04999;39.15;;;;;;;2.98;79.31055;96707.56;;;;
2022/03/18 05:15:46;;;;;;;72.04999;39.15;;;;;;;2.98;79.31055;96707.56;;;;
2022/03/18 05:16:46;;;;;;;72.04999;39.15;;;;;;;2.98;79.31055;96707.56;;;;
2022/03/18 05:17:47;;;;;;;72.04999;39.15;;;;;;;2.98;79.31055;96707.56;;;;
2022/03/18 05:18:50;;;;;;;72.04999;39.15;;;;;;;2.98;79.31055;96707.56;;;;
2022/03/18 05:19:51;;;;;;;72.04999;39.15;;;;;;;2.98;79.31055;96707.56;;;;
2022/03/18 05:20:52;;;;;;;72.04999;39.15;;;;;;;2.98;79.31055;96707.56;;;;
2022/03/18 05:21:52;;;;;;;72.09999;39.75;;;;;;;2.81;79.54102;96715.06;;;;
2022/03/18 05:22:53;;;;;;;72.09999;39.75;;;;;;;2.81;79.54102;96715.06;;;;
2022/03/18 05:23:53;;;;;;;72.09999;39.75;;;;;;;2.81;79.54102;96715.06;;;;
2022/03/18 05:24:54;;;;;;;72.09999;39.75;;;;;;;2.81;79.54102;96715.06;;;;
2022/03/18 05:25:54;;;;;;;72.09999;39.75;;;;;;;2.81;79.54102;96715.06;;;;
2022/03/18 05:26:55;;;;;;;72.09999;39.75;;;;;;;2.81;79.54102;96715.06;;;;
2022/03/18 05:27:57;;;;;;;72.09999;39.75;;;;;;;2.81;79.54102;96715.06;;;;
2022/03/18 05:28:57;;;;;;;72.09999;39.75;;;;;;;2.81;79.54102;96715.06;;;;
2022/03/18 05:29:58;;;;;;;72.09999;39.75;;;;;;;2.81;79.54102;96715.06;;;;
2022/03/18 05:30:59;;;;;;;72.09999;39.75;;;;;;;2.81;79.54102;96715.06;;;;
2022/03/18 05:31:59;;;;;;;72.09999;39.75;;;;;;;2.81;79.54102;96715.06;;;;
2022/03/18 05:33:00;;;;;;;72.09999;39.75;;;;;;;2.81;79.54102;96715.06;;;;
2022/03/18 05:34:00;;;;;;;72.09999;39.75;;;;;;;2.81;79.54102;96715.06;;;;
2022/03/18 05:35:01;;;;;;;72.09999;39.75;;;;;;;2.81;79.54102;96715.06;;;;
2022/03/18 05:36:02;;;;;;;72.09999;39.75;;;;;;;2.81;79.54102;96715.06;;;;
2022/03/18 05:37:05;;;;;;;72.09999;39.75;;;;;;;2.81;79.54102;96715.06;;;;
2022/03/18 05:38:06;;;;;;;72.09999;39.75;;;;;;;2.81;79.54102;96715.06;;;;
2022/03/18 05:39:07;;;;;;;72.09999;39.75;;;;;;;2.81;79.54102;96715.06;;;;
2022/03/18 05:40:08;;;;;;;72.09999;39.75;;;;;;;2.81;79.54102;96715.06;;;;
2022/03/18 05:41:09;;;;;;;72.09999;39.75;;;;;;;2.81;79.54102;96715.06;;;;
2022/03/18 05:42:09;;;;;;;72.09999;39.75;;;;;;;2.81;79.54102;96715.06;;;;
2022/03/18 05:43:10;;;;;;;77.74999;39.8;;;;;;;2.8;79.69727;96734.31;;;;